Time;durP1;ratioP1;P1;durP2;ratioP2;P2;SDS_P1;SDS_P2;PMS_P1;PMS_P2;Temp;Humidity;BMP_temperature;BMP_pressure;BME280_temperature;BME280_humidity;BME280_pressure;Samples;Min_cycle;Max_cycle;Signal;HPM_P1;HPM_P2
2022/04/06 00:00:01;;;;;;;0.60;0.60;;;9.30;99.90;;;;;;4423709;32;20061;-74
2022/04/06 00:02:27;;;;;;;0.75;0.75;;;9.30;99.90;;;;;;4422907;32;20137;-73
2022/04/06 00:04:52;;;;;;;0.70;0.70;;;9.20;99.90;;;;;;4423400;32;20073;-74
2022/04/06 00:07:18;;;;;;;0.60;0.60;;;9.20;99.90;;;;;;4426723;32;20077;-73
2022/04/06 00:09:44;;;;;;;0.50;0.50;;;9.30;99.90;;;;;;4421550;32;20726;-73
2022/04/06 00:12:10;;;;;;;0.40;0.40;;;9.30;99.90;;;;;;4422233;32;20070;-73
2022/04/06 00:14:36;;;;;;;0.55;0.55;;;9.20;99.90;;;;;;4419578;32;20089;-74
2022/04/06 00:17:05;;;;;;;0.32;0.32;;;9.20;99.90;;;;;;4422015;32;20077;-73
2022/04/06 00:19:33;;;;;;;0.50;0.50;;;9.30;99.90;;;;;;4425325;32;20061;-74
2022/04/06 00:21:59;;;;;;;0.62;0.62;;;9.20;99.90;;;;;;4421996;32;20078;-75
2022/04/06 00:24:24;;;;;;;0.50;0.50;;;9.20;99.90;;;;;;4420375;32;20073;-73
2022/04/06 00:26:50;;;;;;;0.70;0.52;;;9.20;99.90;;;;;;4421746;32;20126;-74
2022/04/06 00:29:15;;;;;;;0.50;0.50;;;9.20;99.90;;;;;;4421402;32;20501;-74
2022/04/06 00:31:41;;;;;;;0.50;0.50;;;9.30;99.90;;;;;;4425384;32;20505;-74
2022/04/06 00:34:06;;;;;;;0.98;0.70;;;9.30;99.90;;;;;;4422205;32;20116;-74
2022/04/06 00:36:32;;;;;;;0.37;0.32;;;9.30;99.90;;;;;;4426446;32;20177;-74
2022/04/06 00:38:57;;;;;;;5.82;0.70;;;9.30;99.90;;;;;;4422880;32;20070;-74
2022/04/06 00:41:23;;;;;;;0.62;0.52;;;9.30;99.90;;;;;;4424808;32;20508;-74
2022/04/06 00:44:11;;;;;;;0.40;0.40;;;9.40;99.90;;;;;;4423078;32;20081;-74
2022/04/06 00:46:37;;;;;;;1.08;0.50;;;9.40;99.90;;;;;;4424862;32;20073;-74
2022/04/06 00:49:03;;;;;;;0.68;0.40;;;9.30;99.90;;;;;;4427904;32;20061;-74
2022/04/06 00:51:29;;;;;;;0.40;0.40;;;9.30;99.90;;;;;;4426328;32;20085;-73
2022/04/06 00:53:55;;;;;;;0.47;0.47;;;9.30;99.90;;;;;;4426135;32;20158;-75
2022/04/06 00:56:21;;;;;;;0.60;0.60;;;9.30;99.90;;;;;;4423456;32;20097;-74
2022/04/06 00:58:47;;;;;;;0.40;0.40;;;9.30;99.90;;;;;;4423263;32;20093;-74
2022/04/06 01:01:13;;;;;;;4.70;0.90;;;9.30;99.90;;;;;;4422305;32;20105;-74
2022/04/06 01:03:40;;;;;;;0.62;0.62;;;9.30;99.90;;;;;;4424614;32;20069;-74
2022/04/06 01:06:07;;;;;;;0.50;0.50;;;9.30;99.90;;;;;;4423694;32;20089;-73
2022/04/06 01:08:34;;;;;;;0.47;0.47;;;9.30;99.90;;;;;;4426362;32;20074;-74
2022/04/06 01:11:00;;;;;;;0.40;0.40;;;9.30;99.90;;;;;;4427166;32;20093;-74
2022/04/06 01:13:27;;;;;;;0.62;0.60;;;9.30;99.90;;;;;;4423777;32;20068;-74
2022/04/06 01:15:52;;;;;;;0.70;0.70;;;9.30;99.90;;;;;;4422423;32;20595;-74
2022/04/06 01:18:18;;;;;;;0.70;0.60;;;9.30;99.90;;;;;;4425540;32;20126;-73
2022/04/06 01:20:43;;;;;;;1.60;1.00;;;9.30;99.90;;;;;;4423796;32;20505;-74
2022/04/06 01:23:09;;;;;;;0.52;0.52;;;9.30;99.90;;;;;;4421234;32;20454;-73
2022/04/06 01:25:38;;;;;;;0.62;0.62;;;9.40;99.90;;;;;;4422133;32;20144;-73
2022/04/06 01:28:04;;;;;;;0.40;0.40;;;9.40;99.90;;;;;;4422733;32;20103;-74
2022/04/06 01:30:29;;;;;;;1.92;0.85;;;9.40;99.90;;;;;;4422429;32;20089;-74
2022/04/06 01:32:57;;;;;;;0.57;0.57;;;9.40;99.90;;;;;;4419398;32;20132;-74
2022/04/06 01:35:23;;;;;;;0.60;0.60;;;9.40;99.90;;;;;;4425738;32;20061;-74
2022/04/06 01:37:49;;;;;;;3.78;1.05;;;9.40;99.90;;;;;;4426359;32;20074;-74
2022/04/06 01:40:14;;;;;;;0.82;0.82;;;9.40;99.90;;;;;;4420090;32;20101;-73
2022/04/06 01:42:40;;;;;;;0.25;0.25;;;9.30;99.90;;;;;;4421281;32;20442;-73
2022/04/06 01:45:06;;;;;;;0.60;0.60;;;9.40;99.90;;;;;;4421501;32;20071;-73
2022/04/06 01:47:31;;;;;;;2.33;0.50;;;9.40;99.90;;;;;;4423425;32;20090;-73
2022/04/06 01:52:13;;;;;;;0.40;0.40;;;9.40;99.90;;;;;;4422184;32;20070;-73
2022/04/06 01:52:43;;;;;;;0.50;0.50;;;9.30;99.90;;;;;;4420216;32;20394;-73
2022/04/06 01:55:11;;;;;;;1.12;0.57;;;9.30;99.90;;;;;;4423913;32;20101;-73
2022/04/06 01:57:37;;;;;;;0.50;0.50;;;9.40;99.90;;;;;;4423033;32;20531;-73
2022/04/06 02:00:09;;;;;;;0.50;0.50;;;9.40;99.90;;;;;;4424433;32;20164;-74
2022/04/06 02:02:35;;;;;;;0.60;0.60;;;9.40;99.90;;;;;;4420949;32;20302;-74
2022/04/06 02:05:01;;;;;;;0.40;0.40;;;9.40;99.90;;;;;;4423225;32;20161;-74
2022/04/06 02:07:27;;;;;;;1.08;0.85;;;9.40;99.90;;;;;;4424532;32;20093;-74
2022/04/06 02:09:53;;;;;;;0.50;0.50;;;9.40;99.90;;;;;;4422631;32;20065;-74
2022/04/06 02:12:21;;;;;;;1.45;0.80;;;9.40;99.90;;;;;;4423423;32;20085;-74
2022/04/06 02:14:47;;;;;;;1.08;0.70;;;9.40;99.90;;;;;;4420563;32;20151;-74
2022/04/06 02:17:12;;;;;;;0.47;0.47;;;9.40;99.90;;;;;;4419654;32;21506;-74
2022/04/06 02:19:39;;;;;;;1.02;0.73;;;9.40;99.90;;;;;;4423762;32;20078;-74
2022/04/06 02:22:06;;;;;;;0.65;0.50;;;9.40;99.90;;;;;;4421284;32;20567;-74
2022/04/06 02:24:32;;;;;;;0.57;0.35;;;9.40;99.90;;;;;;4421275;32;20117;-74
2022/04/06 02:26:58;;;;;;;1.67;0.82;;;9.40;99.90;;;;;;4420504;32;20062;-74
2022/04/06 02:29:24;;;;;;;0.45;0.45;;;9.40;99.90;;;;;;4418554;32;20097;-74
2022/04/06 02:31:49;;;;;;;0.32;0.32;;;9.30;99.90;;;;;;4421087;32;20084;-74
2022/04/06 02:34:15;;;;;;;0.60;0.60;;;9.30;99.90;;;;;;4420241;32;20076;-74
2022/04/06 02:36:40;;;;;;;0.80;0.55;;;9.40;99.90;;;;;;4427676;32;20944;-74
2022/04/06 02:39:06;;;;;;;0.70;0.70;;;9.30;99.90;;;;;;4423453;32;20077;-74
2022/04/06 02:41:31;;;;;;;0.47;0.47;;;9.30;99.90;;;;;;4423955;32;20234;-74
2022/04/06 02:43:57;;;;;;;0.43;0.35;;;9.40;99.90;;;;;;4422600;32;20124;-74
2022/04/06 02:46:22;;;;;;;2.97;0.73;;;9.30;99.90;;;;;;4421362;32;20085;-74
2022/04/06 02:48:48;;;;;;;0.50;0.50;;;9.30;99.90;;;;;;4425993;32;20064;-74
2022/04/06 02:51:13;;;;;;;1.17;0.62;;;9.30;99.90;;;;;;4425824;32;20128;-74
2022/04/06 02:53:39;;;;;;;0.45;0.45;;;9.30;99.90;;;;;;4422764;32;20193;-74
2022/04/06 02:56:05;;;;;;;0.30;0.30;;;9.30;99.90;;;;;;4421018;32;20128;-74
2022/04/06 02:58:30;;;;;;;2.95;0.70;;;9.30;99.90;;;;;;4423445;32;20919;-74
2022/04/06 03:00:56;;;;;;;0.75;0.43;;;9.30;99.90;;;;;;4424030;32;20408;-74
2022/04/06 03:03:22;;;;;;;0.40;0.40;;;9.30;99.90;;;;;;4420065;32;20061;-74
2022/04/06 03:05:48;;;;;;;0.50;0.50;;;9.30;99.90;;;;;;4420518;32;20074;-74
2022/04/06 03:08:14;;;;;;;1.52;0.77;;;9.30;99.90;;;;;;4423718;32;20102;-74
2022/04/06 03:10:39;;;;;;;0.70;0.70;;;9.30;99.90;;;;;;4422255;32;20101;-75
2022/04/06 03:13:05;;;;;;;0.52;0.52;;;9.30;99.90;;;;;;4425169;32;20564;-75
2022/04/06 03:15:30;;;;;;;0.47;0.47;;;9.30;99.90;;;;;;4423973;32;20069;-74
2022/04/06 03:17:56;;;;;;;1.20;0.60;;;9.30;99.90;;;;;;4419759;32;20143;-74
2022/04/06 03:20:21;;;;;;;0.62;0.62;;;9.30;99.90;;;;;;4423735;32;20089;-75
2022/04/06 03:22:47;;;;;;;0.30;0.30;;;9.30;99.90;;;;;;4422401;32;20081;-75
2022/04/06 03:25:12;;;;;;;0.75;0.75;;;9.30;99.90;;;;;;4420096;32;20571;-74
2022/04/06 03:27:38;;;;;;;5.18;2.00;;;9.30;99.90;;;;;;4423075;32;20086;-74
2022/04/06 03:30:06;;;;;;;0.75;0.75;;;9.30;99.90;;;;;;4421938;32;20122;-74
2022/04/06 03:32:32;;;;;;;1.77;0.88;;;9.30;99.90;;;;;;4422749;32;20125;-75
2022/04/06 03:34:57;;;;;;;3.40;1.08;;;9.30;99.90;;;;;;4423754;32;20174;-75
2022/04/06 03:37:23;;;;;;;1.65;1.12;;;9.30;99.90;;;;;;4426029;32;20090;-75
2022/04/06 03:39:49;;;;;;;0.60;0.50;;;9.30;99.90;;;;;;4423535;32;20065;-75
2022/04/06 03:42:14;;;;;;;2.45;0.77;;;9.30;99.90;;;;;;4427578;32;20130;-75
2022/04/06 03:44:40;;;;;;;0.50;0.50;;;9.30;99.90;;;;;;4420699;32;20103;-75
2022/04/06 03:47:05;;;;;;;0.62;0.62;;;9.30;99.90;;;;;;4423898;32;20065;-75
2022/04/06 03:49:31;;;;;;;1.12;0.75;;;9.30;99.90;;;;;;4426799;32;20073;-75
2022/04/06 03:51:57;;;;;;;0.50;0.50;;;9.30;99.90;;;;;;4425543;32;20141;-75
2022/04/06 03:54:22;;;;;;;6.10;0.88;;;9.30;99.90;;;;;;4425032;32;20077;-76
2022/04/06 03:56:48;;;;;;;0.43;0.43;;;9.30;99.90;;;;;;4428040;32;20069;-75
2022/04/06 03:59:13;;;;;;;0.40;0.40;;;9.20;99.90;;;;;;4424654;32;20105;-75
2022/04/06 04:01:39;;;;;;;0.98;0.68;;;9.20;99.90;;;;;;4424473;32;20121;-75
2022/04/06 04:04:04;;;;;;;1.17;0.73;;;9.20;99.90;;;;;;4421449;32;20073;-73
2022/04/06 04:06:31;;;;;;;0.52;0.52;;;9.20;99.90;;;;;;4425050;32;20088;-74
2022/04/06 04:08:56;;;;;;;0.62;0.60;;;9.20;99.90;;;;;;4427423;32;20520;-75
2022/04/06 04:11:22;;;;;;;0.50;0.50;;;9.20;99.90;;;;;;4421477;32;20074;-75
2022/04/06 04:13:48;;;;;;;0.40;0.40;;;9.20;99.90;;;;;;4424102;32;20108;-75
2022/04/06 04:16:14;;;;;;;13.25;1.08;;;9.20;99.90;;;;;;4425388;32;20478;-75
2022/04/06 04:18:40;;;;;;;0.65;0.65;;;9.20;99.90;;;;;;4424924;32;20061;-75
2022/04/06 04:21:37;;;;;;;0.40;0.40;;;9.20;99.90;;;;;;4420827;32;20438;-75
2022/04/06 04:23:50;;;;;;;0.47;0.47;;;9.30;99.90;;;;;;4421017;32;20597;-75
2022/04/06 04:26:16;;;;;;;0.40;0.40;;;9.30;99.90;;;;;;4423230;32;20132;-75
2022/04/06 04:28:42;;;;;;;2.62;1.30;;;9.30;99.90;;;;;;4428130;32;20097;-75
2022/04/06 04:31:07;;;;;;;1.85;0.77;;;9.30;99.90;;;;;;4427875;32;20426;-74
2022/04/06 04:33:33;;;;;;;1.95;0.70;;;9.30;99.90;;;;;;4426544;32;20065;-74
2022/04/06 04:35:58;;;;;;;0.55;0.55;;;9.30;99.90;;;;;;4429169;32;20175;-74
2022/04/06 04:38:24;;;;;;;0.40;0.40;;;9.30;99.90;;;;;;4424737;32;20085;-74
2022/04/06 04:40:51;;;;;;;0.75;0.75;;;9.20;99.90;;;;;;4424346;32;20068;-74
2022/04/06 04:43:16;;;;;;;2.37;1.55;;;9.20;99.90;;;;;;4422500;32;20116;-75
2022/04/06 04:45:42;;;;;;;0.47;0.47;;;9.20;99.90;;;;;;4425068;32;20563;-74
2022/04/06 04:48:07;;;;;;;1.27;0.70;;;9.20;99.90;;;;;;4423782;32;20136;-75
2022/04/06 04:50:33;;;;;;;0.68;0.68;;;9.20;99.90;;;;;;4424612;32;20456;-74
2022/04/06 04:52:58;;;;;;;0.32;0.32;;;9.20;99.90;;;;;;4423105;32;20058;-74
2022/04/06 04:55:24;;;;;;;0.60;0.60;;;9.20;99.90;;;;;;4422703;32;20593;-75
2022/04/06 04:57:49;;;;;;;0.47;0.47;;;9.20;99.90;;;;;;4423078;32;20077;-74
2022/04/06 05:00:15;;;;;;;0.60;0.60;;;9.20;99.90;;;;;;4420991;32;20069;-73
2022/04/06 05:02:41;;;;;;;0.75;0.75;;;9.20;99.90;;;;;;4418682;32;20125;-73
2022/04/06 05:05:08;;;;;;;0.98;0.90;;;9.10;99.90;;;;;;4421023;32;20512;-74
2022/04/06 05:07:37;;;;;;;0.50;0.50;;;9.20;99.90;;;;;;4427073;32;20069;-74
2022/04/06 05:10:05;;;;;;;0.65;0.65;;;9.20;99.90;;;;;;4422865;32;20077;-75
2022/04/06 05:12:30;;;;;;;0.52;0.52;;;9.20;99.90;;;;;;4421069;32;20068;-75
2022/04/06 05:14:56;;;;;;;0.50;0.50;;;9.20;99.90;;;;;;4422053;32;20236;-75
2022/04/06 05:17:21;;;;;;;0.65;0.65;;;9.20;99.90;;;;;;4414568;32;20843;-74
2022/04/06 05:19:47;;;;;;;0.43;0.43;;;9.10;99.90;;;;;;4419527;32;20081;-74
2022/04/06 05:22:12;;;;;;;0.43;0.43;;;9.10;99.90;;;;;;4422147;32;20537;-74
2022/04/06 05:24:38;;;;;;;0.60;0.60;;;9.10;99.90;;;;;;4420119;32;20069;-74
2022/04/06 05:27:03;;;;;;;0.32;0.32;;;9.10;99.90;;;;;;4409535;32;20388;-74
2022/04/06 05:29:29;;;;;;;1.20;0.80;;;9.10;99.90;;;;;;4421330;32;20073;-74
2022/04/06 05:31:55;;;;;;;0.85;0.85;;;9.10;99.90;;;;;;4393048;32;20623;-74
2022/04/06 05:34:21;;;;;;;0.47;0.47;;;9.20;99.90;;;;;;4413147;32;20125;-74
2022/04/06 05:36:46;;;;;;;0.40;0.40;;;9.20;99.90;;;;;;4415834;32;20102;-74
2022/04/06 05:39:13;;;;;;;1.70;1.20;;;9.20;99.90;;;;;;4416811;32;20097;-74
2022/04/06 05:41:39;;;;;;;0.50;0.50;;;9.20;99.90;;;;;;4416652;32;20170;-74
2022/04/06 05:44:05;;;;;;;0.43;0.43;;;9.20;99.90;;;;;;4413536;32;20321;-74
2022/04/06 05:46:30;;;;;;;0.80;0.80;;;9.20;99.90;;;;;;4419700;32;20622;-74
2022/04/06 05:48:56;;;;;;;0.85;0.50;;;9.20;99.90;;;;;;4415540;32;20121;-75
2022/04/06 05:51:22;;;;;;;1.55;1.15;;;9.20;99.90;;;;;;4414475;32;20177;-73
2022/04/06 05:53:47;;;;;;;0.77;0.77;;;9.20;99.90;;;;;;4410236;32;20109;-74
2022/04/06 05:56:13;;;;;;;2.05;0.68;;;9.20;99.90;;;;;;4405513;32;20069;-74
2022/04/06 05:58:39;;;;;;;1.25;0.73;;;9.20;99.90;;;;;;4398047;32;20119;-72
2022/04/06 06:01:04;;;;;;;0.70;0.70;;;9.30;99.90;;;;;;4402819;32;20090;-72
2022/04/06 06:03:30;;;;;;;0.57;0.57;;;9.30;99.90;;;;;;4409111;32;20104;-72
2022/04/06 06:05:56;;;;;;;2.65;1.05;;;9.30;99.90;;;;;;4408294;32;20140;-73
2022/04/06 06:08:21;;;;;;;1.30;0.90;;;9.30;99.90;;;;;;4409209;32;22490;-72
2022/04/06 06:10:48;;;;;;;0.90;0.90;;;9.30;99.90;;;;;;4402568;32;20462;-73
2022/04/06 06:13:13;;;;;;;1.00;0.60;;;9.30;99.90;;;;;;4396791;32;20777;-74
2022/04/06 06:15:39;;;;;;;0.62;0.62;;;9.30;99.90;;;;;;4403082;32;20094;-73
2022/04/06 06:18:05;;;;;;;1.33;0.70;;;9.30;99.90;;;;;;4402892;32;21691;-74
2022/04/06 06:20:30;;;;;;;0.75;0.73;;;9.30;99.90;;;;;;4405692;32;20077;-74
2022/04/06 06:22:57;;;;;;;0.40;0.40;;;9.40;99.90;;;;;;4403978;32;20238;-73
2022/04/06 06:25:22;;;;;;;0.82;0.82;;;9.40;99.90;;;;;;4401370;32;20109;-73
2022/04/06 06:27:48;;;;;;;0.68;0.68;;;9.50;99.90;;;;;;4401151;32;20100;-74
2022/04/06 06:30:14;;;;;;;3.20;1.67;;;9.50;99.90;;;;;;4402813;32;20105;-73
2022/04/06 06:32:40;;;;;;;3.40;1.20;;;9.60;99.90;;;;;;4406131;32;20435;-74
2022/04/06 06:35:08;;;;;;;0.82;0.55;;;9.60;99.90;;;;;;4407669;32;20073;-74
2022/04/06 06:37:34;;;;;;;0.73;0.73;;;9.60;99.90;;;;;;4409091;32;20559;-74
2022/04/06 06:40:00;;;;;;;1.30;0.75;;;9.60;99.90;;;;;;4408665;32;20506;-73
2022/04/06 06:42:25;;;;;;;1.52;1.42;;;9.70;99.90;;;;;;4408901;32;20117;-74
2022/04/06 06:44:51;;;;;;;4.32;0.88;;;9.70;99.90;;;;;;4405168;32;20156;-74
2022/04/06 06:47:16;;;;;;;2.62;1.23;;;9.70;99.90;;;;;;4407473;32;20516;-73
2022/04/06 06:49:46;;;;;;;0.75;0.70;;;9.70;99.90;;;;;;4403885;32;20077;-74
2022/04/06 06:52:13;;;;;;;0.50;0.50;;;9.70;99.90;;;;;;4399009;32;20109;-74
2022/04/06 06:54:39;;;;;;;1.00;0.95;;;9.70;99.90;;;;;;4404307;32;20104;-74
2022/04/06 06:57:04;;;;;;;0.70;0.70;;;9.80;99.90;;;;;;4400050;32;20101;-73
2022/04/06 06:59:30;;;;;;;8.30;0.98;;;9.80;99.90;;;;;;4405258;32;20219;-73
2022/04/06 07:01:55;;;;;;;1.58;0.88;;;9.80;99.90;;;;;;4404649;32;20089;-73
2022/04/06 07:04:22;;;;;;;0.60;0.60;;;9.80;99.90;;;;;;4404329;32;21209;-73
2022/04/06 07:06:49;;;;;;;1.05;0.88;;;9.80;99.90;;;;;;4405736;32;20628;-73
2022/04/06 07:09:15;;;;;;;0.95;0.95;;;9.90;99.90;;;;;;4396877;32;20174;-73
2022/04/06 07:11:41;;;;;;;0.90;0.77;;;10.00;99.90;;;;;;4391221;32;20097;-73
2022/04/06 07:14:07;;;;;;;0.60;0.60;;;10.00;99.90;;;;;;4399157;32;20159;-73
2022/04/06 07:16:32;;;;;;;0.93;0.80;;;10.00;99.90;;;;;;4402568;32;20105;-74
2022/04/06 07:18:58;;;;;;;1.45;0.93;;;10.10;99.90;;;;;;4400242;32;20094;-74
2022/04/06 07:21:23;;;;;;;0.70;0.70;;;10.10;99.90;;;;;;4400212;32;20580;-74
2022/04/06 07:23:49;;;;;;;1.33;1.23;;;10.20;99.90;;;;;;4400668;32;20081;-73
2022/04/06 07:26:16;;;;;;;0.75;0.75;;;10.30;99.90;;;;;;4394609;32;20116;-72
2022/04/06 07:28:45;;;;;;;0.55;0.55;;;10.30;99.90;;;;;;4396454;32;20089;-72
2022/04/06 07:31:11;;;;;;;0.50;0.50;;;10.40;99.90;;;;;;4395862;32;20554;-73
2022/04/06 07:33:37;;;;;;;1.37;1.02;;;10.40;99.90;;;;;;4394713;32;20666;-75
2022/04/06 07:36:04;;;;;;;0.90;0.90;;;10.40;99.90;;;;;;4399204;32;118673;-72
2022/04/06 07:38:30;;;;;;;0.98;0.70;;;10.50;99.90;;;;;;4402005;32;20166;-73
2022/04/06 07:40:55;;;;;;;1.23;0.95;;;10.60;99.90;;;;;;4396592;32;20134;-71
2022/04/06 07:43:22;;;;;;;1.83;0.68;;;10.60;99.90;;;;;;4402982;32;20170;-72
2022/04/06 07:45:47;;;;;;;26.05;0.80;;;10.70;99.90;;;;;;4402501;32;20143;-72
2022/04/06 07:48:13;;;;;;;0.73;0.73;;;10.70;99.90;;;;;;4396400;32;20100;-72
2022/04/06 07:50:39;;;;;;;0.60;0.60;;;10.80;99.90;;;;;;4393050;32;20086;-73
2022/04/06 07:53:05;;;;;;;0.55;0.55;;;10.90;99.90;;;;;;4395977;32;20824;-72
2022/04/06 07:55:30;;;;;;;1.37;1.15;;;10.90;99.90;;;;;;4400558;32;20094;-73
2022/04/06 07:57:56;;;;;;;1.15;0.75;;;11.00;99.90;;;;;;4398751;32;20096;-73
2022/04/06 08:00:22;;;;;;;0.52;0.52;;;11.00;99.90;;;;;;4401285;32;20113;-73
2022/04/06 08:02:49;;;;;;;3.42;1.70;;;11.10;99.90;;;;;;4394248;32;20301;-73
2022/04/06 08:05:15;;;;;;;5.20;1.10;;;11.20;99.90;;;;;;4398021;32;22384;-73
2022/04/06 08:07:43;;;;;;;0.50;0.50;;;11.30;99.90;;;;;;4397390;32;20618;-73
2022/04/06 08:10:12;;;;;;;1.62;0.95;;;11.40;99.90;;;;;;4396766;32;20089;-73
2022/04/06 08:12:39;;;;;;;0.47;0.47;;;11.40;99.90;;;;;;4399074;32;20113;-73
2022/04/06 08:15:05;;;;;;;1.65;1.02;;;11.50;99.90;;;;;;4383695;32;21249;-72
2022/04/06 08:17:35;;;;;;;9.05;0.70;;;11.60;99.90;;;;;;4399087;32;20073;-72
2022/04/06 08:20:00;;;;;;;0.73;0.73;;;11.70;99.90;;;;;;4389669;32;21121;-73
2022/04/06 08:22:26;;;;;;;5.03;1.48;;;11.70;99.90;;;;;;4401342;32;20090;-72
2022/04/06 08:24:52;;;;;;;1.12;0.90;;;11.70;99.90;;;;;;4401101;32;20883;-72
2022/04/06 08:27:17;;;;;;;0.90;0.80;;;11.80;99.90;;;;;;4389470;32;20154;-72
2022/04/06 08:29:42;;;;;;;14.80;0.93;;;11.80;99.90;;;;;;4401866;32;20077;-72
2022/04/06 08:32:08;;;;;;;0.60;0.60;;;11.80;99.90;;;;;;4398314;32;20114;-73
2022/04/06 08:34:33;;;;;;;0.35;0.35;;;11.80;99.90;;;;;;4397360;32;20231;-72
2022/04/06 08:37:02;;;;;;;0.60;0.60;;;11.80;99.90;;;;;;4389475;32;20608;-72
2022/04/06 08:39:27;;;;;;;1.08;0.80;;;11.70;99.90;;;;;;4390052;32;20264;-73
2022/04/06 08:41:55;;;;;;;0.50;0.50;;;11.70;99.90;;;;;;4394914;32;20170;-73
2022/04/06 08:44:20;;;;;;;0.37;0.37;;;11.60;99.90;;;;;;4393129;32;20109;-72
2022/04/06 08:46:50;;;;;;;0.77;0.77;;;11.70;99.90;;;;;;4397735;32;20197;-72
2022/04/06 08:49:16;;;;;;;0.40;0.40;;;11.60;99.90;;;;;;4397488;32;20192;-71
2022/04/06 08:51:44;;;;;;;1.37;1.00;;;11.50;99.90;;;;;;4402581;32;20097;-72
2022/04/06 08:54:10;;;;;;;0.80;0.68;;;11.50;99.90;;;;;;4400930;32;20093;-71
2022/04/06 08:56:36;;;;;;;0.57;0.47;;;11.60;99.90;;;;;;4404980;32;20089;-72
2022/04/06 08:59:03;;;;;;;1.65;1.20;;;11.60;99.90;;;;;;4404701;32;20930;-72
2022/04/06 09:01:33;;;;;;;0.40;0.40;;;11.60;99.90;;;;;;4400159;32;20089;-73
2022/04/06 09:04:00;;;;;;;1.15;1.08;;;11.70;99.90;;;;;;4407822;32;20093;-72
2022/04/06 09:06:29;;;;;;;0.30;0.30;;;11.80;99.90;;;;;;4395385;32;20219;-71
2022/04/06 09:08:55;;;;;;;0.37;0.37;;;11.80;99.90;;;;;;4400044;32;20143;-71
2022/04/06 09:11:21;;;;;;;0.50;0.50;;;11.80;99.90;;;;;;4402382;32;20093;-72
2022/04/06 09:13:56;;;;;;;1.20;0.95;;;11.80;99.90;;;;;;4399719;32;20088;-72
2022/04/06 09:16:21;;;;;;;1.55;0.60;;;11.90;99.90;;;;;;4404114;32;20140;-71
2022/04/06 09:18:48;;;;;;;0.52;0.50;;;11.90;99.90;;;;;;4399415;32;20580;-70
2022/04/06 09:21:17;;;;;;;0.65;0.65;;;12.00;99.90;;;;;;4396784;32;20170;-72
2022/04/06 09:23:48;;;;;;;0.50;0.50;;;12.00;99.90;;;;;;4396553;32;20603;-71
2022/04/06 09:26:16;;;;;;;2.20;0.90;;;12.00;99.90;;;;;;4399705;32;20427;-71
2022/04/06 09:28:45;;;;;;;0.50;0.50;;;12.10;99.90;;;;;;4397488;32;20712;-72
2022/04/06 09:31:19;;;;;;;6.55;1.33;;;12.20;99.90;;;;;;4394941;32;20148;-72
2022/04/06 09:34:02;;;;;;;0.68;0.68;;;12.20;99.90;;;;;;4394016;32;20849;-72
2022/04/06 09:36:29;;;;;;;0.30;0.30;;;12.30;99.90;;;;;;4391410;32;20167;-72
2022/04/06 09:38:55;;;;;;;0.75;0.68;;;12.30;99.90;;;;;;4394845;32;20117;-72
2022/04/06 09:41:21;;;;;;;0.70;0.70;;;12.40;99.90;;;;;;4392339;32;20090;-72
2022/04/06 09:43:48;;;;;;;0.77;0.77;;;12.30;99.90;;;;;;4395052;32;20802;-71
2022/04/06 09:47:38;;;;;;;1.30;1.00;;;12.20;99.90;;;;;;4401889;32;20085;-71
2022/04/06 09:49:13;;;;;;;0.68;0.60;;;12.20;99.90;;;;;;4393695;32;20738;-72
2022/04/06 09:51:41;;;;;;;0.50;0.50;;;12.20;99.90;;;;;;4400617;32;20199;-71
2022/04/06 09:54:08;;;;;;;0.88;0.65;;;12.10;99.90;;;;;;4399331;32;21851;-70
2022/04/06 09:56:35;;;;;;;0.40;0.40;;;12.10;99.90;;;;;;4403639;32;20073;-71
2022/04/06 09:59:02;;;;;;;0.40;0.40;;;12.20;99.90;;;;;;4403834;32;20106;-72
2022/04/06 10:01:38;;;;;;;1.15;0.70;;;12.20;99.90;;;;;;4399699;32;20138;-71
2022/04/06 10:04:06;;;;;;;0.50;0.50;;;12.30;99.90;;;;;;4402296;32;20615;-71
2022/04/06 10:06:34;;;;;;;0.57;0.57;;;12.40;99.90;;;;;;4402543;32;20073;-69
2022/04/06 10:09:02;;;;;;;0.40;0.40;;;12.30;99.90;;;;;;4403099;32;20812;-72
2022/04/06 10:11:30;;;;;;;0.43;0.43;;;12.20;99.90;;;;;;4399135;32;20598;-71
2022/04/06 10:13:56;;;;;;;0.93;0.80;;;12.10;99.90;;;;;;4397675;32;20089;-72
2022/04/06 10:16:23;;;;;;;2.87;0.93;;;12.00;99.90;;;;;;4394891;32;20812;-70
2022/04/06 10:18:51;;;;;;;0.95;0.90;;;12.00;99.90;;;;;;4383228;32;20097;-72
2022/04/06 10:21:41;;;;;;;2.35;1.25;;;12.00;99.90;;;;;;4393327;32;20491;-73
2022/04/06 10:24:47;;;;;;;35.40;1.10;;;12.00;99.90;;;;;;4384902;32;20164;-72
2022/04/06 10:27:35;;;;;;;0.43;0.43;;;12.00;99.90;;;;;;4388789;32;21071;-72
2022/04/06 10:30:23;;;;;;;1.98;0.50;;;12.00;99.90;;;;;;4404020;32;20081;-71
2022/04/06 10:32:51;;;;;;;7.93;0.75;;;12.10;99.90;;;;;;4404127;32;20140;-71
2022/04/06 10:35:22;;;;;;;0.52;0.52;;;12.10;99.90;;;;;;4402895;32;20667;-71
2022/04/06 10:37:51;;;;;;;2.60;1.27;;;12.20;99.90;;;;;;4400327;32;20102;-71
2022/04/06 10:40:17;;;;;;;1.65;1.02;;;12.30;99.90;;;;;;4401692;32;20923;-72
2022/04/06 10:42:45;;;;;;;0.85;0.85;;;12.30;99.90;;;;;;4402775;32;20134;-73
2022/04/06 10:45:29;;;;;;;0.50;0.50;;;12.40;99.90;;;;;;4400926;32;20122;-72
2022/04/06 10:48:16;;;;;;;2.80;1.35;;;12.50;99.90;;;;;;4402860;32;20180;-71
2022/04/06 10:50:44;;;;;;;0.80;0.45;;;12.60;99.90;;;;;;4392720;32;20102;-70
2022/04/06 10:53:26;;;;;;;0.82;0.70;;;12.70;99.90;;;;;;4391525;32;20157;-71
2022/04/06 10:56:03;;;;;;;0.40;0.40;;;12.80;99.90;;;;;;4385528;32;20104;-71
2022/04/06 10:58:57;;;;;;;1.25;0.60;;;12.80;99.90;;;;;;4385518;32;20331;-72
2022/04/06 11:01:26;;;;;;;0.32;0.32;;;12.80;99.90;;;;;;4386309;32;20750;-73
2022/04/06 11:04:16;;;;;;;4.43;0.75;;;12.60;99.90;;;;;;4397810;32;20093;-73
2022/04/06 11:06:44;;;;;;;0.90;0.60;;;12.60;99.90;;;;;;4392644;32;20110;-72
2022/04/06 11:10:29;;;;;;;0.65;0.65;;;12.40;99.90;;;;;;4392790;32;20307;-72
2022/04/06 11:12:24;;;;;;;12.77;1.05;;;12.40;99.90;;;;;;4390627;32;20119;-72
2022/04/06 11:15:11;;;;;;;4.37;1.17;;;12.30;99.90;;;;;;4390106;32;20710;-72
2022/04/06 11:17:38;;;;;;;1.65;0.62;;;12.30;99.90;;;;;;4396661;32;20122;-72
2022/04/06 11:20:12;;;;;;;0.80;0.40;;;12.30;99.90;;;;;;4390380;32;21187;-72
2022/04/06 11:22:43;;;;;;;3.50;0.77;;;12.30;99.90;;;;;;4386886;32;20101;-72
2022/04/06 11:25:09;;;;;;;;;;;12.30;99.90;;;;;;4396403;32;20130;-72
2022/04/06 11:27:37;;;;;;;4.82;2.05;;;12.30;99.90;;;;;;4397392;32;19978;-70
2022/04/06 11:30:07;;;;;;;0.65;0.65;;;12.30;99.90;;;;;;4396413;32;20369;-71
2022/04/06 11:32:33;;;;;;;1.33;0.75;;;12.30;99.90;;;;;;4391485;32;20081;-73
2022/04/06 11:35:02;;;;;;;0.47;0.47;;;12.20;99.90;;;;;;4398611;32;20776;-72
2022/04/06 11:37:28;;;;;;;0.37;0.37;;;12.20;99.90;;;;;;4384800;32;21084;-72
2022/04/06 11:39:57;;;;;;;0.35;0.35;;;12.10;99.90;;;;;;4377567;32;20687;-72
2022/04/06 11:42:23;;;;;;;0.40;0.40;;;12.10;99.90;;;;;;4368547;32;20283;-72
2022/04/06 11:44:49;;;;;;;0.43;0.43;;;12.00;99.90;;;;;;4367559;32;21032;-72
2022/04/06 11:47:15;;;;;;;0.80;0.70;;;12.00;99.90;;;;;;4372789;32;20077;-72
2022/04/06 11:49:41;;;;;;;0.47;0.47;;;11.90;99.90;;;;;;4380690;32;20249;-71
2022/04/06 11:52:07;;;;;;;0.75;0.70;;;11.90;99.90;;;;;;4388218;32;20070;-72
2022/04/06 11:54:32;;;;;;;1.08;0.82;;;11.90;99.90;;;;;;4397796;32;20160;-72
2022/04/06 11:56:59;;;;;;;0.35;0.35;;;11.90;99.90;;;;;;4393669;32;20090;-72
2022/04/06 11:59:26;;;;;;;0.50;0.50;;;11.90;99.90;;;;;;4400918;32;20097;-71
2022/04/06 12:01:52;;;;;;;0.40;0.40;;;11.80;99.90;;;;;;4398864;32;20126;-73
2022/04/06 12:04:21;;;;;;;0.45;0.45;;;11.80;99.90;;;;;;4402081;32;20624;-72
2022/04/06 12:06:48;;;;;;;0.47;0.47;;;11.80;99.90;;;;;;4407104;32;20122;-71
2022/04/06 12:09:14;;;;;;;0.20;0.20;;;11.90;99.90;;;;;;4401933;32;20438;-72
2022/04/06 12:11:40;;;;;;;1.45;0.95;;;11.90;99.90;;;;;;4406189;32;20065;-71
2022/04/06 12:14:10;;;;;;;5.37;0.70;;;11.90;99.90;;;;;;4408247;32;22243;-72
2022/04/06 12:16:37;;;;;;;0.60;0.60;;;11.90;99.90;;;;;;4398779;32;20162;-71
2022/04/06 12:19:05;;;;;;;0.35;0.35;;;12.00;99.90;;;;;;4395491;32;20784;-72
2022/04/06 12:21:31;;;;;;;0.57;0.57;;;12.10;99.90;;;;;;4395000;32;20105;-72
2022/04/06 12:23:56;;;;;;;0.30;0.30;;;12.10;99.90;;;;;;4400455;32;20081;-72
2022/04/06 12:26:23;;;;;;;2.50;1.37;;;12.10;99.90;;;;;;4404521;32;20192;-72
2022/04/06 12:28:56;;;;;;;0.68;0.60;;;12.10;99.90;;;;;;4407642;32;20097;-72
2022/04/06 12:31:32;;;;;;;1.37;1.15;;;12.00;99.90;;;;;;4395655;32;20331;-72
2022/04/06 12:33:59;;;;;;;1.05;0.50;;;11.90;99.90;;;;;;4389572;32;20110;-73
2022/04/06 12:36:27;;;;;;;0.40;0.40;;;11.90;99.90;;;;;;4403146;32;20111;-72
2022/04/06 12:39:03;;;;;;;2.03;0.55;;;11.90;99.90;;;;;;4401514;32;20252;-71
2022/04/06 12:41:32;;;;;;;0.40;0.40;;;11.80;99.90;;;;;;4405304;32;20291;-72
2022/04/06 12:43:59;;;;;;;0.65;0.62;;;11.80;99.90;;;;;;4408169;32;20081;-71
2022/04/06 12:46:42;;;;;;;0.50;0.50;;;11.80;99.90;;;;;;4410975;32;20545;-72
2022/04/06 12:49:26;;;;;;;0.50;0.50;;;11.80;99.90;;;;;;4409753;32;20274;-72
2022/04/06 12:52:20;;;;;;;6.15;0.70;;;11.90;99.90;;;;;;4413149;32;20077;-72
2022/04/06 12:55:07;;;;;;;25.40;1.05;;;11.90;99.90;;;;;;4400148;32;20132;-72